Time;durP1;ratioP1;P1;durP2;ratioP2;P2;SDS_P1;SDS_P2;PMS_P1;PMS_P2;Temp;Humidity;BMP_temperature;BMP_pressure;BME280_temperature;BME280_humidity;BME280_pressure;Samples;Min_cycle;Max_cycle;Signal;HPM_P1;HPM_P2
2021/12/10 00:00:44;;;;;;;66.10;32.20;;;;;;;-0.93;82.60;97409.11;215555;1317;24241;-71
2021/12/10 00:06:17;;;;;;;55.50;29.30;;;;;;;-0.97;82.76;97411.59;213142;1320;24460;-71
2021/12/10 00:11:25;;;;;;;55.90;27.20;;;;;;;-0.93;83.14;97404.85;212855;1322;22652;-70
2021/12/10 00:16:28;;;;;;;57.40;27.30;;;;;;;-0.97;82.94;97378.98;214111;1322;22746;-71
2021/12/10 00:21:31;;;;;;;55.70;26.40;;;;;;;-1.02;82.97;97383.67;213695;1316;22649;-69
2021/12/10 00:26:33;;;;;;;52.80;25.50;;;;;;;-1.06;83.17;97402.40;213459;1318;23458;-71
2021/12/10 00:31:49;;;;;;;51.30;26.10;;;;;;;-0.97;83.61;97391.95;214055;1322;25629;-70
2021/12/10 00:36:54;;;;;;;50.00;25.80;;;;;;;-0.83;83.78;97379.02;213415;1324;25276;-72
2021/12/10 00:41:59;;;;;;;43.90;23.40;;;;;;;-0.69;83.62;97369.70;213444;1322;22584;-70
2021/12/10 00:47:03;;;;;;;49.70;24.80;;;;;;;-0.66;83.41;97348.36;212814;1321;22675;-71
2021/12/10 00:52:08;;;;;;;47.60;25.20;;;;;;;-0.62;83.11;97354.86;213712;1316;22593;-72
2021/12/10 00:57:13;;;;;;;45.30;23.90;;;;;;;-0.55;83.61;97354.25;213754;1323;22595;-71
2021/12/10 01:02:21;;;;;;;39.00;21.10;;;;;;;-0.52;83.20;97346.17;214172;1318;22615;-71
2021/12/10 01:07:30;;;;;;;46.50;24.70;;;;;;;-0.70;82.26;97342.76;211974;1324;22674;-70
2021/12/10 01:12:40;;;;;;;53.90;26.20;;;;;;;-0.86;82.62;97334.68;212764;1321;22944;-71
2021/12/10 01:28:44;;;;;;;45.00;24.20;;;;;;;-0.77;83.09;97320.87;213355;1316;25254;-70
2021/12/10 01:33:49;;;;;;;45.40;22.90;;;;;;;-0.73;83.42;97325.48;212586;1316;26777;-71
2021/12/10 01:38:54;;;;;;;45.40;23.40;;;;;;;-0.70;83.34;97337.60;213572;1316;26688;-71
2021/12/10 01:44:02;;;;;;;54.00;25.80;;;;;;;-0.75;82.86;97332.40;213254;1323;25527;-71
2021/12/10 01:49:07;;;;;;;56.40;28.30;;;;;;;-0.87;82.67;97331.62;213729;1316;22602;-71
2021/12/10 01:54:19;;;;;;;58.90;28.50;;;;;;;-0.86;83.07;97340.83;213664;1322;25348;-71
2021/12/10 01:59:22;;;;;;;55.40;28.00;;;;;;;-0.82;83.08;97332.83;213556;1322;22675;-71
2021/12/10 02:04:28;;;;;;;58.60;29.30;;;;;;;-0.85;83.16;97324.16;213501;1319;22771;-71
2021/12/10 02:09:31;;;;;;;61.50;28.50;;;;;;;-0.86;83.37;97324.06;213819;1316;22648;-71
2021/12/10 02:14:33;;;;;;;59.60;29.70;;;;;;;-0.83;83.51;97334.59;212944;1316;22584;-71
2021/12/10 02:19:36;;;;;;;58.40;28.90;;;;;;;-0.79;83.20;97326.22;212565;1322;24346;-71
2021/12/10 02:24:39;;;;;;;60.10;29.40;;;;;;;-0.73;83.20;97325.59;213976;1316;24445;-71
2021/12/10 02:29:41;;;;;;;59.90;28.50;;;;;;;-0.66;83.30;97324.27;213864;1320;22695;-70
2021/12/10 02:34:44;;;;;;;59.20;28.60;;;;;;;-0.67;83.05;97322.52;213668;1323;22679;-71
2021/12/10 02:39:47;;;;;;;57.60;28.80;;;;;;;-0.73;83.09;97319.08;213331;1318;25452;-71
2021/12/10 02:44:59;;;;;;;61.20;29.60;;;;;;;-0.78;82.89;97304.34;213834;1316;22643;-71
2021/12/10 02:50:07;;;;;;;64.30;31.40;;;;;;;-0.86;82.71;97307.17;212693;1316;22813;-71
2021/12/10 02:55:24;;;;;;;65.90;30.70;;;;;;;-0.87;83.11;97306.70;212652;1320;22654;-71
2021/12/10 03:00:57;;;;;;;69.50;31.40;;;;;;;-0.97;82.71;97290.52;213793;1316;26741;-71
2021/12/10 03:06:00;;;;;;;71.40;34.00;;;;;;;-1.10;82.79;97275.06;213681;1316;25534;-71
2021/12/10 03:11:03;;;;;;;73.00;35.10;;;;;;;-1.15;82.98;97276.69;213639;1322;25624;-71
2021/12/10 03:16:06;;;;;;;69.00;33.20;;;;;;;-1.10;83.57;97273.84;213885;1321;24308;-72
2021/12/10 03:21:12;;;;;;;64.90;32.20;;;;;;;-1.01;83.53;97264.09;213109;1322;25519;-71
2021/12/10 03:26:20;;;;;;;83.20;36.70;;;;;;;-1.07;83.29;97263.56;212867;1318;22584;-71
2021/12/10 03:31:25;;;;;;;81.60;36.30;;;;;;;-1.16;83.00;97257.02;213757;1323;22590;-72
2021/12/10 03:36:28;;;;;;;75.50;35.00;;;;;;;-1.10;83.75;97274.78;214982;1316;23219;-69
2021/12/10 03:41:30;;;;;;;73.70;35.50;;;;;;;-0.97;84.03;97268.13;212451;1316;25427;-70
2021/12/10 03:46:32;;;;;;;91.00;38.90;;;;;;;-0.89;84.15;97268.66;212812;1322;24279;-71
2021/12/10 03:52:06;;;;;;;81.50;35.60;;;;;;;-0.84;84.00;97253.55;212725;1323;22632;-69
2021/12/10 03:57:24;;;;;;;92.10;40.10;;;;;;;-0.92;83.42;97245.55;213793;1316;22771;-69
2021/12/10 04:02:26;;;;;;;91.20;39.90;;;;;;;-0.94;83.69;97254.64;212745;1316;22599;-71
2021/12/10 04:07:29;;;;;;;90.70;41.00;;;;;;;-0.93;83.72;97262.36;213618;1319;24013;-71
2021/12/10 04:12:32;;;;;;;91.70;40.70;;;;;;;-0.90;83.99;97267.33;214460;1318;25517;-70
2021/12/10 04:18:03;;;;;;;83.70;39.80;;;;;;;-0.93;83.73;97267.38;213140;1319;25653;-69
2021/12/10 04:23:10;;;;;;;90.30;39.10;;;;;;;-1.04;83.55;97279.73;214444;1316;22787;-70
2021/12/10 04:28:16;;;;;;;94.30;40.80;;;;;;;-1.13;83.68;97281.19;213948;1316;24488;-69
2021/12/10 04:33:22;;;;;;;91.90;39.50;;;;;;;-1.23;83.39;97278.45;214245;1318;25367;-71
2021/12/10 04:38:33;;;;;;;81.50;35.20;;;;;;;-1.41;82.89;97275.74;214239;1313;25331;-69
2021/12/10 04:43:45;;;;;;;82.00;35.90;;;;;;;-1.68;82.48;97282.14;214888;1317;25920;-70
2021/12/10 04:48:57;;;;;;;86.50;39.00;;;;;;;-1.90;82.89;97285.19;213389;1318;25358;-70
2021/12/10 04:54:07;;;;;;;77.20;33.90;;;;;;;-2.07;83.09;97291.70;213386;1315;26421;-69
2021/12/10 04:59:15;;;;;;;76.80;34.30;;;;;;;-2.28;83.05;97296.82;213401;1317;26445;-71
2021/12/10 05:04:17;;;;;;;86.40;36.30;;;;;;;-2.39;83.62;97301.65;214398;1319;25239;-70
2021/12/10 05:09:21;;;;;;;63.00;30.70;;;;;;;-2.31;84.50;97298.14;214419;1316;25266;-71
2021/12/10 05:14:25;;;;;;;57.20;26.40;;;;;;;-2.17;85.18;97300.85;214335;1318;25665;-71
2021/12/10 05:19:28;;;;;;;55.40;25.80;;;;;;;-2.04;85.61;97295.72;214373;1316;22710;-70
2021/12/10 05:24:30;;;;;;;49.20;25.10;;;;;;;-1.93;85.79;97290.20;213444;1317;22584;-72
2021/12/10 05:29:33;;;;;;;45.70;20.80;;;;;;;-1.81;86.11;97298.65;214104;1314;25428;-71
2021/12/10 05:34:43;;;;;;;44.00;21.90;;;;;;;-1.71;86.35;97292.45;211628;1318;3922937;-70
2021/12/10 05:39:45;;;;;;;44.30;22.50;;;;;;;-1.64;86.24;97287.07;214219;1319;23462;-71
2021/12/10 05:44:57;;;;;;;45.60;20.90;;;;;;;-1.55;86.30;97287.59;214165;1317;23107;-71
2021/12/10 05:50:17;;;;;;;38.40;18.80;;;;;;;-1.48;86.30;97292.64;214150;1319;26728;-71
2021/12/10 05:55:24;;;;;;;38.40;19.90;;;;;;;-1.40;86.51;97290.48;214349;1313;22782;-71
2021/12/10 06:00:33;;;;;;;36.40;16.20;;;;;;;-1.32;86.61;97289.14;213321;1318;22952;-69
2021/12/10 06:05:39;;;;;;;28.60;15.30;;;;;;;-1.27;86.41;97281.10;213422;1316;22683;-71
2021/12/10 06:10:41;;;;;;;28.70;14.00;;;;;;;-1.22;86.64;97279.30;214168;1313;22969;-69
2021/12/10 06:15:44;;;;;;;28.00;14.10;;;;;;;-1.14;86.71;97281.86;213347;1319;23124;-71
2021/12/10 06:20:50;;;;;;;20.20;11.00;;;;;;;-1.06;86.79;97281.45;213380;1318;25546;-70
2021/12/10 06:25:52;;;;;;;22.50;11.60;;;;;;;-1.01;86.47;97278.34;213003;1318;22993;-71
2021/12/10 06:30:54;;;;;;;20.50;11.50;;;;;;;-0.96;86.38;97278.60;213221;1317;23236;-73
2021/12/10 06:36:03;;;;;;;18.10;10.80;;;;;;;-0.91;86.10;97284.21;213503;1316;22555;-70
2021/12/10 06:41:06;;;;;;;19.70;10.70;;;;;;;-0.86;86.13;97288.92;213177;1316;22559;-70
2021/12/10 06:46:09;;;;;;;18.40;10.40;;;;;;;-0.84;86.09;97288.00;212915;1311;22627;-70
2021/12/10 06:51:17;;;;;;;15.40;9.80;;;;;;;-0.79;85.88;97291.55;212964;1319;25654;-71
2021/12/10 06:56:26;;;;;;;17.80;10.00;;;;;;;-0.74;85.98;97302.23;213189;1313;25417;-70
2021/12/10 07:01:32;;;;;;;20.30;11.90;;;;;;;-0.68;85.64;97306.80;212616;1315;22799;-70
2021/12/10 07:06:36;;;;;;;19.30;11.80;;;;;;;-0.59;85.85;97309.48;214511;1318;24134;-70
2021/12/10 07:11:42;;;;;;;21.20;11.90;;;;;;;-0.43;85.96;97308.81;212725;1318;24026;-69
2021/12/10 07:16:49;;;;;;;17.60;10.20;;;;;;;-0.40;85.54;97299.47;215148;1311;26481;-71
2021/12/10 07:22:01;;;;;;;17.90;10.60;;;;;;;-0.51;84.91;97305.33;214599;1311;25343;-70
2021/12/10 07:27:11;;;;;;;24.80;14.10;;;;;;;-0.69;84.62;97308.79;212654;1314;22670;-70
2021/12/10 07:32:14;;;;;;;33.10;16.50;;;;;;;-0.81;84.59;97310.42;212779;1316;25587;-70
2021/12/10 07:37:19;;;;;;;29.60;16.30;;;;;;;-0.86;84.64;97305.91;212961;1315;24140;-69
2021/12/10 07:42:21;;;;;;;33.50;17.90;;;;;;;-0.86;84.66;97312.06;212740;1315;24483;-70
2021/12/10 07:47:24;;;;;;;30.50;16.90;;;;;;;-0.84;84.53;97316.70;214108;1316;22620;-69
2021/12/10 07:52:33;;;;;;;35.90;18.60;;;;;;;-0.89;84.22;97312.30;212973;1311;22586;-70
2021/12/10 07:57:36;;;;;;;36.80;19.30;;;;;;;-0.77;84.93;97307.36;213042;1318;22593;-70
2021/12/10 08:02:38;;;;;;;42.00;21.00;;;;;;;-0.72;84.42;97310.23;214086;1312;23385;-70
2021/12/10 08:07:41;;;;;;;43.00;21.10;;;;;;;-0.73;83.96;97324.74;214462;1316;25311;-70
2021/12/10 08:12:50;;;;;;;39.00;20.50;;;;;;;-0.64;84.33;97327.86;214724;1310;22594;-70
2021/12/10 08:17:52;;;;;;;39.60;21.10;;;;;;;-0.41;84.69;97332.14;214585;1314;22588;-70
2021/12/10 08:23:04;;;;;;;43.40;21.90;;;;;;;-0.15;84.55;97329.67;214179;1319;22592;-70
2021/12/10 08:28:07;;;;;;;40.70;21.10;;;;;;;0.14;84.55;97328.11;214719;1312;22566;-69
2021/12/10 08:33:13;;;;;;;45.10;24.10;;;;;;;0.38;84.27;97325.38;214715;1318;22690;-70
2021/12/10 08:38:15;;;;;;;40.40;22.10;;;;;;;0.66;84.17;97324.79;214841;1312;22596;-70
2021/12/10 08:43:20;;;;;;;42.50;22.30;;;;;;;0.93;83.79;97329.75;214510;1316;22787;-70
2021/12/10 08:48:24;;;;;;;42.90;23.90;;;;;;;1.17;83.57;97335.34;212952;1318;24225;-69
2021/12/10 08:53:27;;;;;;;39.60;22.00;;;;;;;1.36;83.15;97331.33;212936;1318;25265;-70
2021/12/10 08:58:30;;;;;;;47.00;24.50;;;;;;;1.47;82.22;97321.89;213033;1319;25514;-70
2021/12/10 09:03:33;;;;;;;45.30;23.60;;;;;;;1.38;81.73;97329.70;213047;1316;22596;-70
2021/12/10 09:08:38;;;;;;;39.00;20.60;;;;;;;1.35;81.35;97329.75;212926;1314;22599;-70
2021/12/10 09:13:42;;;;;;;33.80;19.10;;;;;;;1.32;81.21;97326.59;213368;1314;22779;-70
2021/12/10 09:18:44;;;;;;;33.90;19.20;;;;;;;1.36;81.35;97323.79;213085;1318;24252;-69
2021/12/10 09:23:48;;;;;;;34.80;20.10;;;;;;;1.49;81.10;97315.02;212941;1317;25373;-71
2021/12/10 09:28:50;;;;;;;31.20;16.50;;;;;;;1.63;81.53;97304.52;212777;1316;25448;-70
2021/12/10 09:33:58;;;;;;;23.80;14.10;;;;;;;1.66;80.52;97300.60;212838;1311;26518;-70
2021/12/10 09:39:08;;;;;;;29.10;14.10;;;;;;;1.47;80.16;97292.70;214474;1318;23379;-71
2021/12/10 09:44:11;;;;;;;;;;;;;;;1.32;80.36;97292.45;214673;1311;25231;-70
2021/12/10 09:49:14;;;;;;;28.90;14.20;;;;;;;1.24;80.83;97288.86;214276;1318;22618;-70
2021/12/10 09:54:22;;;;;;;24.70;14.10;;;;;;;1.38;81.13;97286.06;214589;1311;22632;-70
2021/12/10 09:59:25;;;;;;;20.60;12.40;;;;;;;1.48;80.69;97275.92;215201;1316;22647;-69
2021/12/10 10:04:31;;;;;;;20.90;14.00;;;;;;;1.50;80.80;97272.75;212597;1316;22576;-70
2021/12/10 10:09:34;;;;;;;21.50;13.00;;;;;;;1.52;80.53;97275.75;212853;1313;24324;-69
2021/12/10 10:14:38;;;;;;;28.00;14.50;;;;;;;1.56;80.47;97272.58;212720;1316;22653;-69
2021/12/10 10:19:41;;;;;;;25.60;14.50;;;;;;;1.56;80.29;97273.65;213425;1320;22613;-70
2021/12/10 10:24:44;;;;;;;24.50;14.30;;;;;;;1.64;80.47;97269.46;214206;1319;25524;-70
2021/12/10 10:30:05;;;;;;;22.50;13.90;;;;;;;1.75;80.60;97259.77;214410;1317;26371;-70
2021/12/10 10:35:13;;;;;;;24.80;13.70;;;;;;;2.07;80.77;97263.11;213063;1314;24394;-70
2021/12/10 10:40:21;;;;;;;25.40;15.30;;;;;;;2.30;80.45;97260.38;213131;1319;25525;-70
2021/12/10 10:45:26;;;;;;;32.20;17.50;;;;;;;2.52;80.09;97258.84;213178;1316;24311;-70
2021/12/10 10:50:45;;;;;;;28.40;16.60;;;;;;;2.65;79.61;97263.86;213410;1319;24242;-71
2021/12/10 10:55:51;;;;;;;30.50;17.60;;;;;;;2.74;79.12;97262.01;212905;1319;22744;-71
2021/12/10 11:01:08;;;;;;;28.10;16.60;;;;;;;2.75;79.01;97259.83;212955;1312;25483;-71
2021/12/10 11:06:50;;;;;;;31.40;16.10;;;;;;;2.69;78.87;97261.19;214650;1312;22593;-71
2021/12/10 11:11:54;;;;;;;31.90;19.00;;;;;;;2.70;78.98;97259.16;217330;1313;22596;-71
2021/12/10 11:17:03;;;;;;;29.40;16.90;;;;;;;2.70;79.06;97263.81;213069;1319;22634;-70
2021/12/10 11:22:27;;;;;;;28.40;15.70;;;;;;;2.76;79.13;97265.38;214394;1319;22594;-70
2021/12/10 11:27:36;;;;;;;25.60;15.40;;;;;;;3.01;79.77;97266.09;212676;1320;22577;-69
2021/12/10 11:32:47;;;;;;;24.90;14.90;;;;;;;3.42;80.00;97273.14;213520;1319;22623;-69
2021/12/10 11:38:36;;;;;;;19.40;12.00;;;;;;;3.82;79.93;97275.46;213089;1317;22735;-71
2021/12/10 11:44:17;;;;;;;22.60;13.80;;;;;;;4.09;78.93;97280.58;213322;1326;23779;-71
2021/12/10 11:49:22;;;;;;;21.80;12.80;;;;;;;4.10;78.31;97282.27;214216;1313;23049;-71
2021/12/10 11:54:40;;;;;;;23.80;13.30;;;;;;;3.99;78.06;97285.46;214459;1313;22583;-70
2021/12/10 11:59:53;;;;;;;21.40;12.30;;;;;;;3.87;78.03;97290.82;214795;1313;24726;-71
2021/12/10 12:05:06;;;;;;;21.10;11.70;;;;;;;3.86;77.75;97293.17;214561;1313;22734;-71
2021/12/10 12:10:18;;;;;;;23.40;14.00;;;;;;;3.89;77.60;97287.90;214208;1316;22647;-70
2021/12/10 12:15:32;;;;;;;21.70;12.90;;;;;;;3.88;77.32;97285.52;214372;1311;22675;-71
2021/12/10 12:26:29;;;;;;;23.40;13.30;;;;;;;3.70;77.05;97270.66;214567;1311;25364;-70
2021/12/10 12:31:54;;;;;;;23.90;14.20;;;;;;;3.76;77.08;97262.70;214565;1314;22661;-70
2021/12/10 12:37:01;;;;;;;25.90;14.00;;;;;;;3.83;77.12;97259.60;214312;1319;24336;-70
2021/12/10 12:42:32;;;;;;;21.80;12.60;;;;;;;3.93;77.21;97261.36;214632;1314;22758;-70
2021/12/10 12:47:38;;;;;;;21.80;12.50;;;;;;;3.89;76.52;97259.71;214177;1311;22610;-70
2021/12/10 12:52:55;;;;;;;22.40;12.70;;;;;;;3.80;76.46;97250.42;214413;1315;22753;-70
2021/12/10 12:58:20;;;;;;;19.30;12.40;;;;;;;3.82;76.89;97244.62;214297;1313;22651;-71
2021/12/10 13:03:46;;;;;;;18.80;11.10;;;;;;;3.79;76.61;97248.53;214133;1316;25398;-71
2021/12/10 13:09:24;;;;;;;20.10;11.10;;;;;;;3.67;76.28;97258.65;214299;1311;22606;-71
2021/12/10 13:14:33;;;;;;;21.00;11.70;;;;;;;3.54;76.42;97266.52;214693;1317;22541;-72
2021/12/10 13:19:36;;;;;;;19.10;11.40;;;;;;;3.43;76.24;97262.17;214380;1311;25356;-70
2021/12/10 13:24:42;;;;;;;20.90;12.80;;;;;;;3.34;76.30;97267.75;214130;1312;22595;-71
2021/12/10 13:29:48;;;;;;;18.30;10.40;;;;;;;3.27;76.21;97264.27;214994;1318;23392;-70
2021/12/10 13:34:53;;;;;;;21.90;12.10;;;;;;;3.16;76.29;97266.10;214240;1316;257466;-71
2021/12/10 13:39:58;;;;;;;20.20;11.80;;;;;;;3.15;76.51;97268.27;214794;1317;22740;-70
2021/12/10 13:45:02;;;;;;;18.40;11.30;;;;;;;3.08;76.26;97266.07;214695;1314;25377;-70
2021/12/10 13:50:11;;;;;;;26.10;13.60;;;;;;;2.97;76.20;97266.18;214641;1316;22618;-70
2021/12/10 13:55:22;;;;;;;18.50;10.60;;;;;;;2.83;76.05;97263.16;212682;1317;22677;-71
2021/12/10 14:00:25;;;;;;;19.90;10.90;;;;;;;2.66;75.83;97263.05;213963;1316;22573;-70
2021/12/10 14:05:36;;;;;;;22.00;12.80;;;;;;;2.52;76.08;97259.80;214078;1316;25421;-71
2021/12/10 14:10:43;;;;;;;16.20;10.10;;;;;;;2.45;76.42;97256.09;214136;1321;22726;-70
2021/12/10 14:16:00;;;;;;;16.60;10.20;;;;;;;2.36;76.48;97261.35;214025;1316;23136;-71
2021/12/10 14:21:23;;;;;;;18.40;10.00;;;;;;;2.24;76.42;97259.66;213866;1316;22630;-70
2021/12/10 14:27:07;;;;;;;17.40;10.00;;;;;;;2.15;76.58;97260.98;213838;1316;22748;-71
2021/12/10 14:32:29;;;;;;;18.70;10.80;;;;;;;2.08;76.74;97261.46;213772;1316;22629;-71
2021/12/10 14:38:07;;;;;;;22.10;11.70;;;;;;;1.90;76.58;97260.42;213497;1319;23509;-70
2021/12/10 14:43:49;;;;;;;23.00;11.40;;;;;;;1.64;76.45;97259.31;213716;1316;22636;-70
2021/12/10 14:49:18;;;;;;;21.80;11.40;;;;;;;1.39;76.82;97261.52;213816;1321;23740;-71
2021/12/10 14:55:15;;;;;;;22.00;11.70;;;;;;;1.15;77.02;97271.34;214635;1317;25332;-72
2021/12/10 15:00:56;;;;;;;23.00;11.70;;;;;;;0.99;77.23;97277.09;214511;1316;25378;-71
2021/12/10 15:06:26;;;;;;;20.30;11.40;;;;;;;0.83;77.29;97279.95;212308;1325;22595;-71
2021/12/10 15:11:57;;;;;;;24.40;12.20;;;;;;;0.70;77.87;97279.77;213540;1318;25451;-70
2021/12/10 15:17:19;;;;;;;27.90;14.40;;;;;;;0.55;77.79;97278.75;213338;1324;22682;-71
2021/12/10 15:22:37;;;;;;;37.50;21.50;;;;;;;0.39;77.87;97277.48;212670;1322;22579;-70
2021/12/10 15:27:42;;;;;;;44.50;23.90;;;;;;;0.23;77.97;97272.80;213384;1318;22614;-70
2021/12/10 15:33:04;;;;;;;40.20;20.60;;;;;;;0.04;78.03;97281.14;213617;1322;22714;-70
2021/12/10 15:38:39;;;;;;;34.60;19.90;;;;;;;-0.25;77.67;97284.15;212743;1324;22587;-71
2021/12/10 15:44:13;;;;;;;38.50;20.50;;;;;;;-0.66;77.68;97283.77;213452;1324;22726;-71
2021/12/10 15:49:29;;;;;;;55.20;27.00;;;;;;;-0.88;78.42;97283.39;213581;1324;22591;-71
2021/12/10 15:54:37;;;;;;;46.60;23.60;;;;;;;-0.97;78.64;97280.84;213221;1318;22739;-70
2021/12/10 15:59:44;;;;;;;52.80;27.40;;;;;;;-1.02;78.98;97283.32;212707;1318;22815;-71
2021/12/10 16:04:55;;;;;;;68.40;31.90;;;;;;;-1.13;79.11;97276.87;213974;1322;22777;-71
2021/12/10 16:10:05;;;;;;;67.10;31.80;;;;;;;-1.36;78.54;97277.05;213689;1318;22581;-70
2021/12/10 16:15:18;;;;;;;76.70;36.30;;;;;;;-1.56;78.77;97273.29;213479;1325;24315;-69
2021/12/10 16:20:30;;;;;;;75.30;35.10;;;;;;;-1.64;79.12;97271.80;213592;1322;22568;-70
2021/12/10 16:25:37;;;;;;;78.00;35.40;;;;;;;-1.70;79.53;97269.73;213632;1322;22678;-71
2021/12/10 16:30:52;;;;;;;74.50;36.30;;;;;;;-1.83;79.31;97263.80;213538;1322;22656;-70
2021/12/10 16:36:19;;;;;;;70.40;33.60;;;;;;;-2.01;79.18;97270.67;213602;1320;22665;-71
2021/12/10 16:41:32;;;;;;;91.00;41.60;;;;;;;-2.18;79.26;97268.27;213279;1319;22687;-72
2021/12/10 16:46:37;;;;;;;78.70;34.60;;;;;;;-2.27;79.57;97262.31;213430;1319;24336;-70
2021/12/10 16:51:53;;;;;;;79.00;36.00;;;;;;;-2.37;79.53;97260.40;213520;1321;22822;-71
2021/12/10 16:57:06;;;;;;;91.10;39.70;;;;;;;-2.47;79.70;97256.38;213122;1323;22732;-71
2021/12/10 17:02:17;;;;;;;88.00;40.90;;;;;;;-2.53;80.04;97254.36;212948;1316;22850;-71
2021/12/10 17:07:24;;;;;;;80.80;40.20;;;;;;;-2.53;80.40;97254.41;213732;1316;22749;-72
2021/12/10 17:12:28;;;;;;;73.20;35.10;;;;;;;-2.48;80.65;97258.36;213866;1322;22751;-71
2021/12/10 17:17:32;;;;;;;70.50;33.90;;;;;;;-2.49;80.45;97256.77;213789;1319;22606;-72
2021/12/10 17:22:38;;;;;;;69.60;31.10;;;;;;;-2.57;80.47;97261.02;213999;1318;22595;-71
2021/12/10 17:27:41;;;;;;;72.20;33.40;;;;;;;-2.65;80.50;97262.14;215868;1323;22707;-71
2021/12/10 17:32:44;;;;;;;66.20;30.80;;;;;;;-2.75;80.20;97264.21;213554;1316;22689;-71
2021/12/10 17:37:46;;;;;;;61.80;29.00;;;;;;;-2.82;80.24;97277.09;213710;1320;24352;-72
2021/12/10 17:43:06;;;;;;;73.40;32.00;;;;;;;-2.91;80.37;97272.62;213404;1320;24254;-71
2021/12/10 17:48:13;;;;;;;70.50;31.40;;;;;;;-3.00;80.58;97277.70;213604;1323;22597;-70
2021/12/10 17:53:23;;;;;;;72.60;32.00;;;;;;;-3.10;80.66;97279.11;213558;1318;22699;-71
2021/12/10 17:58:31;;;;;;;75.60;35.50;;;;;;;-3.17;80.84;97274.16;213511;1322;25693;-71
2021/12/10 18:03:46;;;;;;;82.30;38.40;;;;;;;-3.20;80.83;97272.87;213681;1316;25497;-71
2021/12/10 18:09:05;;;;;;;79.00;35.90;;;;;;;-3.19;81.21;97274.34;213514;1322;24318;-72
2021/12/10 18:14:08;;;;;;;75.40;34.70;;;;;;;-3.18;81.28;97279.30;213890;1317;24398;-71
2021/12/10 18:19:12;;;;;;;76.20;36.70;;;;;;;-3.19;81.36;97284.88;213444;1318;24347;-71
2021/12/10 18:24:18;;;;;;;97.30;44.90;;;;;;;-3.20;81.63;97293.36;213524;1324;22642;-71
2021/12/10 18:29:34;;;;;;;91.50;44.20;;;;;;;-3.18;81.58;97300.56;213661;1322;24398;-71
2021/12/10 18:34:43;;;;;;;86.80;40.00;;;;;;;-3.14;81.95;97297.48;214007;1324;22938;-72
2021/12/10 18:40:03;;;;;;;80.10;38.90;;;;;;;-3.07;82.20;97303.30;214067;1320;22674;-71
2021/12/10 18:45:11;;;;;;;82.30;39.40;;;;;;;-3.07;81.99;97312.43;213378;1324;22668;-71
2021/12/10 18:50:31;;;;;;;102.10;48.60;;;;;;;-3.11;81.94;97310.38;213349;1319;23321;-71
2021/12/10 18:55:44;;;;;;;94.60;44.90;;;;;;;-3.13;81.97;97316.63;213566;1323;22634;-72
2021/12/10 19:01:10;;;;;;;84.50;40.20;;;;;;;-3.10;82.19;97315.73;213560;1323;23115;-72
2021/12/10 19:06:18;;;;;;;98.00;46.30;;;;;;;-3.12;82.11;97321.41;213511;1318;22603;-72
2021/12/10 19:11:25;;;;;;;96.20;47.90;;;;;;;-3.11;82.36;97327.14;213566;1319;22887;-72
2021/12/10 19:16:45;;;;;;;106.50;52.90;;;;;;;-3.10;82.36;97328.73;213564;1318;22925;-71
2021/12/10 19:22:12;;;;;;;111.30;51.40;;;;;;;-3.14;81.88;97332.79;213159;1321;22651;-72
2021/12/10 19:27:32;;;;;;;116.30;48.40;;;;;;;-3.22;81.50;97334.65;213049;1323;24412;-72
2021/12/10 19:32:41;;;;;;;96.20;41.40;;;;;;;-3.35;81.36;97341.33;213676;1319;24337;-71
2021/12/10 19:37:51;;;;;;;96.30;43.60;;;;;;;-3.45;81.59;97354.43;213516;1324;24347;-71
2021/12/10 19:42:57;;;;;;;101.90;45.80;;;;;;;-3.46;81.92;97357.02;213591;1318;23063;-72
2021/12/10 19:48:06;;;;;;;114.00;48.50;;;;;;;-3.46;82.09;97352.38;212393;1324;22674;-72
2021/12/10 19:53:17;;;;;;;88.90;41.20;;;;;;;-3.47;82.30;97345.92;214120;1324;22663;-70
2021/12/10 19:58:27;;;;;;;112.20;52.40;;;;;;;-3.53;82.53;97351.88;214329;1321;24464;-71
2021/12/10 20:03:33;;;;;;;109.60;50.30;;;;;;;-3.54;82.79;97357.02;213441;1319;24349;-72
2021/12/10 20:08:44;;;;;;;114.30;46.70;;;;;;;-3.46;83.28;97365.99;213487;1318;23591;-72
2021/12/10 20:13:58;;;;;;;122.30;52.90;;;;;;;-3.32;83.79;97366.73;213488;1323;22597;-71
2021/12/10 20:19:20;;;;;;;113.00;48.30;;;;;;;-3.14;84.41;97365.55;213498;1324;24345;-71
2021/12/10 20:24:30;;;;;;;99.20;44.20;;;;;;;-2.94;84.91;97371.77;213247;1324;22580;-71
2021/12/10 20:29:49;;;;;;;96.10;42.20;;;;;;;-2.70;85.08;97385.60;213449;1323;22603;-72
2021/12/10 20:34:55;;;;;;;90.30;40.90;;;;;;;-2.48;85.35;97392.93;213349;1321;22616;-71
2021/12/10 20:40:07;;;;;;;85.00;38.10;;;;;;;-2.30;85.16;97395.91;213561;1322;22740;-71
2021/12/10 20:45:23;;;;;;;93.60;39.70;;;;;;;-2.17;84.91;97417.77;213465;1324;22651;-71
2021/12/10 20:50:34;;;;;;;78.60;38.70;;;;;;;-2.04;85.07;97428.04;213336;1325;22786;-71
2021/12/10 20:55:47;;;;;;;93.10;41.10;;;;;;;-1.94;84.92;97425.05;213633;1324;22604;-72
2021/12/10 21:00:59;;;;;;;97.90;44.80;;;;;;;-1.84;85.02;97435.73;213504;1321;25371;-71
2021/12/10 21:06:12;;;;;;;98.40;44.10;;;;;;;-1.74;85.01;97444.27;213874;1324;25378;-71
2021/12/10 21:11:23;;;;;;;78.80;36.50;;;;;;;-1.60;84.86;97442.95;213847;1316;25469;-72
2021/12/10 21:16:39;;;;;;;63.50;29.90;;;;;;;-1.55;84.65;97446.33;213538;1325;22637;-71
2021/12/10 21:21:52;;;;;;;92.50;41.70;;;;;;;-1.51;84.47;97449.33;213798;1323;25490;-71
2021/12/10 21:27:00;;;;;;;82.80;37.60;;;;;;;-1.49;84.53;97458.84;213471;1320;25667;-70
2021/12/10 21:32:17;;;;;;;77.50;35.00;;;;;;;-1.46;84.43;97471.77;213634;1318;26393;-71
2021/12/10 21:42:43;;;;;;;72.50;34.40;;;;;;;-1.46;84.45;97486.80;213682;1322;22649;-71
2021/12/10 21:47:47;;;;;;;84.30;37.40;;;;;;;-1.46;84.09;97490.79;213722;1316;25371;-72
2021/12/10 21:52:53;;;;;;;76.00;36.30;;;;;;;-1.46;84.02;97492.67;213744;1315;25278;-71
2021/12/10 21:57:58;;;;;;;70.40;32.70;;;;;;;-1.46;84.14;97500.98;213409;1319;22582;-72
2021/12/10 22:03:13;;;;;;;82.30;34.90;;;;;;;-1.47;84.17;97496.77;213744;1320;22926;-71
2021/12/10 22:08:31;;;;;;;78.20;36.00;;;;;;;-1.45;84.37;97495.42;213422;1322;22734;-72
2021/12/10 22:14:03;;;;;;;83.90;36.60;;;;;;;-1.44;84.02;97490.48;214070;1319;24456;-71
2021/12/10 22:19:22;;;;;;;76.50;33.90;;;;;;;-1.41;84.12;97496.21;213684;1322;25505;-70
2021/12/10 22:24:29;;;;;;;86.60;35.90;;;;;;;-1.37;84.26;97497.89;213421;1323;24709;-72
2021/12/10 22:29:46;;;;;;;79.50;33.80;;;;;;;-1.38;84.15;97505.75;213387;1324;25387;-72
2021/12/10 22:34:57;;;;;;;84.00;35.20;;;;;;;-1.41;84.28;97502.73;212548;1323;22796;-72
2021/12/10 22:40:09;;;;;;;87.50;37.10;;;;;;;-1.42;84.04;97498.41;213341;1318;22685;-71
2021/12/10 22:45:13;;;;;;;83.40;36.40;;;;;;;-1.36;84.21;97505.53;213794;1318;22605;-70
2021/12/10 22:50:42;;;;;;;92.70;38.80;;;;;;;-1.33;84.45;97506.10;213755;1324;26834;-71
2021/12/10 22:56:08;;;;;;;73.70;33.70;;;;;;;-1.26;84.66;97510.29;213167;1324;23323;-72
2021/12/10 23:01:23;;;;;;;85.70;37.80;;;;;;;-1.27;84.38;97511.44;212470;1318;25313;-71
2021/12/10 23:06:56;;;;;;;90.80;38.10;;;;;;;-1.27;84.16;97520.41;212224;1324;25482;-71
2021/12/10 23:12:06;;;;;;;88.60;37.80;;;;;;;-1.30;84.06;97518.27;213609;1323;22590;-71
2021/12/10 23:17:22;;;;;;;106.70;44.20;;;;;;;-1.24;84.47;97522.15;213319;1324;22571;-71
2021/12/10 23:22:24;;;;;;;107.10;44.60;;;;;;;-1.20;84.25;97520.92;213690;1320;22592;-71
2021/12/10 23:27:35;;;;;;;127.00;52.10;;;;;;;-1.24;84.25;97517.20;214322;1320;22526;-71
2021/12/10 23:32:59;;;;;;;108.80;43.70;;;;;;;-1.21;84.32;97523.34;212281;1316;22844;-71
2021/12/10 23:38:09;;;;;;;87.20;38.40;;;;;;;-1.18;84.06;97517.44;212920;1317;24398;-71
2021/12/10 23:43:12;;;;;;;;;;;;;;;-1.22;84.06;97522.02;213823;1323;25548;-71
2021/12/10 23:48:30;;;;;;;97.30;39.30;;;;;;;-1.27;83.92;97538.97;213890;1317;24295;-72
2021/12/10 23:53:40;;;;;;;113.20;45.90;;;;;;;-1.38;83.91;97543.34;213958;1319;24465;-71
2021/12/10 23:59:02;;;;;;;104.30;43.90;;;;;;;-1.43;83.89;97550.83;213826;1322;22610;-72
